Mobridge Municipal Airport
KMBG : now visible

Airfield :











YOU CAN JOIN US ON...

 
LOGIN :

Register | Disclaimer

   EN    FR    IT 

 









Legend :    VFR   Marginal VFR   IFR   Intensive IFR   Very Intensive IFR
Visi :
Ceiling :
>= 8 km
>= 3000ft
5 to 8 km
1000 to 3000 ft
1500m to 5 km
500 to 1000 ft
800 to 1500m
200 to 500 ft
< 800m
< 200 ft
Symbols :   Thunderstorms  Fog  Heavy snow  Heavy precipitations  Wind > 20 kt






- Airport Elevation : 1716 ft


KMBG - Mobridge Municipal

CURRENT METAR :
  • 040552Z AUTO 07016G27KT 10SM CLR 21/17 A2975 RMK AO2 PK WND 06031/0524 SLP062 T02060172 10283 20200 402940167 58002

EXPIRED METARs :
  • 040452Z AUTO 07016G24KT 10SM CLR 21/16 A2975 RMK AO2 PK WND 06028/0408 SLP063 T02060156
  • 040352Z AUTO 08019G31KT 10SM FEW100 21/17 A2979 RMK AO2 PK WND 08032/0325 SLP075 T02110172

TAF KMBG
Valid from the 04 at 06:00 until the 05 at 06:00 UTC


040526Z 0406/0506 13016G27KT P6SM BKN150
FM040800 10014G23KT P6SM VCTS BKN090CB OVC200
FM041100 09007KT P6SM SCT120
FM041400 14008KT P6SM FEW150
FM041700 20006KT P6SM FEW090
FM050300 06010KT P6SM SCT250
KZMP FIR / North America



MET'MAP, your aeronautical weather chart ! - Copyright ORBIFLY December 2007 - Disclaimer

ORBIFLY MET'MAP TEAM :

Programming & Development : Alexandra Zaïnal
Original concept : Baudouin d'Aumeries
Technical & hardware support : Manuel Goepfert
Assistance : Marc-Olivier Méhu




SOURCES & CREDITS :

   NOAA       Earth
Advisory